Time;durP1;ratioP1;P1;durP2;ratioP2;P2;SDS_P1;SDS_P2;PMS_P1;PMS_P2;Temp;Humidity;BMP_temperature;BMP_pressure;BME280_temperature;BME280_humidity;BME280_pressure;Samples;Min_cycle;Max_cycle;Signal;HPM_P1;HPM_P2
2021/06/14 00:01:07;;;;;;;4.68;2.55;;;11.60;99.90;;;;;;5105602;28;20035;-77
2021/06/14 00:03:33;;;;;;;2.78;2.22;;;11.60;99.90;;;;;;5104335;28;20529;-77
2021/06/14 00:05:59;;;;;;;3.60;2.65;;;11.60;99.90;;;;;;5104767;28;20074;-77
2021/06/14 00:08:25;;;;;;;3.38;2.72;;;11.60;99.90;;;;;;5107170;28;20035;-77
2021/06/14 00:10:56;;;;;;;4.93;2.63;;;11.60;99.90;;;;;;5104518;28;20115;-77
2021/06/14 00:13:31;;;;;;;4.95;3.00;;;11.60;99.90;;;;;;5106578;28;20043;-76
2021/06/14 00:15:56;;;;;;;3.47;2.60;;;11.60;99.90;;;;;;5109995;27;20027;-77
2021/06/14 00:18:22;;;;;;;4.50;2.70;;;11.60;99.90;;;;;;5102979;28;20040;-76
2021/06/14 00:20:53;;;;;;;4.53;2.80;;;11.50;99.90;;;;;;5106385;28;20051;-77
2021/06/14 00:23:19;;;;;;;4.10;2.42;;;11.50;99.90;;;;;;5113832;28;20036;-76
2021/06/14 00:25:45;;;;;;;3.88;2.40;;;11.50;99.90;;;;;;5114383;28;20551;-77
2021/06/14 00:28:11;;;;;;;2.67;2.05;;;11.60;99.90;;;;;;5105785;28;20040;-77
2021/06/14 00:30:51;;;;;;;3.15;2.20;;;11.60;99.90;;;;;;5110022;28;20039;-77
2021/06/14 00:33:20;;;;;;;3.45;2.30;;;11.60;99.90;;;;;;5105310;28;20522;-77
2021/06/14 00:35:47;;;;;;;5.40;2.20;;;11.60;99.90;;;;;;5094220;28;20026;-77
2021/06/14 00:38:15;;;;;;;7.47;2.55;;;11.60;99.90;;;;;;5104368;28;20085;-76
2021/06/14 00:40:42;;;;;;;3.90;2.50;;;11.60;99.90;;;;;;5108409;28;20032;-77
2021/06/14 00:43:09;;;;;;;3.38;2.53;;;11.50;99.90;;;;;;5085877;28;20118;-78
2021/06/14 00:45:41;;;;;;;4.25;2.80;;;11.50;99.90;;;;;;5110076;28;20032;-77
2021/06/14 00:48:09;;;;;;;4.03;2.03;;;11.40;99.90;;;;;;5104062;28;20036;-76
2021/06/14 00:50:50;;;;;;;4.50;2.60;;;11.40;99.90;;;;;;5102919;28;20046;-77
2021/06/14 00:53:23;;;;;;;3.20;2.35;;;11.30;99.90;;;;;;5105602;28;20028;-76
2021/06/14 00:55:50;;;;;;;3.42;2.47;;;11.20;99.90;;;;;;5105843;28;20643;-77
2021/06/14 00:58:18;;;;;;;4.72;2.55;;;11.20;99.90;;;;;;5081534;28;20031;-76
2021/06/14 01:00:45;;;;;;;4.80;2.58;;;11.20;99.90;;;;;;5106809;28;20020;-77
2021/06/14 01:03:13;;;;;;;2.95;2.40;;;11.10;99.90;;;;;;5097088;28;20093;-77
2021/06/14 01:05:43;;;;;;;3.42;2.58;;;11.10;99.90;;;;;;5101008;28;20504;-77
2021/06/14 01:08:10;;;;;;;3.30;2.03;;;11.10;99.90;;;;;;5064992;28;20036;-77
2021/06/14 01:10:38;;;;;;;4.32;2.30;;;11.10;99.90;;;;;;5103068;28;20036;-77
2021/06/14 01:13:17;;;;;;;3.13;2.13;;;11.00;99.90;;;;;;5105937;28;20052;-76
2021/06/14 01:15:57;;;;;;;2.50;2.00;;;11.00;99.90;;;;;;5113472;27;20110;-77
2021/06/14 01:18:32;;;;;;;2.78;2.28;;;11.00;99.90;;;;;;5106198;28;20043;-77
2021/06/14 01:21:10;;;;;;;3.35;2.30;;;10.90;99.90;;;;;;5105181;28;20120;-77
2021/06/14 01:24:05;;;;;;;2.60;2.13;;;10.90;99.90;;;;;;5102664;28;20099;-76
2021/06/14 01:26:40;;;;;;;4.88;2.28;;;10.90;99.90;;;;;;5101440;28;20032;-75
2021/06/14 01:29:07;;;;;;;2.88;2.30;;;10.90;99.90;;;;;;5110052;28;20019;-77
2021/06/14 01:31:35;;;;;;;2.67;2.33;;;10.90;99.90;;;;;;5111660;28;20397;-77
2021/06/14 01:34:02;;;;;;;3.08;2.40;;;10.90;99.90;;;;;;5100322;28;20028;-77
2021/06/14 01:36:35;;;;;;;4.10;2.97;;;10.80;99.90;;;;;;5083314;28;20028;-77
2021/06/14 01:39:12;;;;;;;4.13;2.78;;;10.80;99.90;;;;;;5103238;28;20043;-77
2021/06/14 01:41:45;;;;;;;3.47;2.80;;;10.80;99.90;;;;;;5087739;28;20032;-77
2021/06/14 01:44:17;;;;;;;4.03;2.65;;;10.70;99.90;;;;;;5101755;28;20081;-76
2021/06/14 01:46:48;;;;;;;3.80;2.47;;;10.70;99.90;;;;;;5101412;28;20031;-77
2021/06/14 01:49:16;;;;;;;5.25;2.80;;;10.80;99.90;;;;;;5100031;28;20032;-77
2021/06/14 01:51:46;;;;;;;3.45;2.50;;;10.70;99.90;;;;;;5101637;28;20032;-76
2021/06/14 01:54:18;;;;;;;3.55;2.60;;;10.70;99.90;;;;;;5106715;28;20023;-77
2021/06/14 01:56:56;;;;;;;3.55;2.50;;;10.70;99.90;;;;;;5106734;28;20543;-77
2021/06/14 01:59:36;;;;;;;3.60;2.67;;;10.70;99.90;;;;;;5100101;28;20036;-77
2021/06/14 02:02:08;;;;;;;5.90;2.72;;;10.60;99.90;;;;;;5093859;28;20028;-77
2021/06/14 02:04:44;;;;;;;3.47;3.08;;;10.60;99.90;;;;;;5099943;28;20036;-76
2021/06/14 02:07:16;;;;;;;3.85;3.20;;;10.50;99.90;;;;;;5098524;28;20057;-75
2021/06/14 02:09:43;;;;;;;3.63;2.50;;;10.40;99.90;;;;;;5101203;28;20458;-76
2021/06/14 02:12:09;;;;;;;5.28;3.03;;;10.40;99.90;;;;;;5103823;28;20027;-78
2021/06/14 02:14:38;;;;;;;3.45;2.53;;;10.40;99.90;;;;;;5087173;28;20043;-76
2021/06/14 02:17:11;;;;;;;4.65;2.90;;;10.40;99.90;;;;;;5106695;28;20031;-76
2021/06/14 02:19:39;;;;;;;3.83;2.83;;;10.30;99.90;;;;;;5102436;28;20019;-77
2021/06/14 02:22:06;;;;;;;4.00;2.83;;;10.30;99.90;;;;;;5111380;28;20474;-77
2021/06/14 02:24:32;;;;;;;3.85;2.58;;;10.30;99.90;;;;;;5109065;28;20059;-77
2021/06/14 02:27:00;;;;;;;4.85;3.00;;;10.30;99.90;;;;;;5101166;28;20059;-77
2021/06/14 02:29:26;;;;;;;4.32;2.55;;;10.30;99.90;;;;;;5086705;28;20036;-77
2021/06/14 02:31:52;;;;;;;6.00;2.55;;;10.20;99.90;;;;;;5069244;28;20059;-77
2021/06/14 02:34:21;;;;;;;2.50;2.30;;;10.20;99.90;;;;;;5104307;28;20092;-77
2021/06/14 02:36:48;;;;;;;4.78;3.15;;;10.10;99.90;;;;;;5100048;28;20028;-78
2021/06/14 02:39:16;;;;;;;5.07;3.10;;;10.10;99.90;;;;;;5103549;28;20034;-77
2021/06/14 02:41:44;;;;;;;3.65;2.50;;;10.00;99.90;;;;;;5082569;28;20032;-77
2021/06/14 02:44:11;;;;;;;3.15;2.60;;;10.00;99.90;;;;;;5105497;28;20389;-77
2021/06/14 02:46:45;;;;;;;4.18;2.53;;;9.90;99.90;;;;;;5109563;28;20024;-78
2021/06/14 02:49:13;;;;;;;4.10;3.00;;;10.00;99.90;;;;;;5108590;28;20059;-78
2021/06/14 02:51:41;;;;;;;4.75;2.83;;;10.00;99.90;;;;;;5106237;28;20028;-77
2021/06/14 02:54:17;;;;;;;6.15;2.63;;;9.90;99.90;;;;;;5081609;28;20514;-77
2021/06/14 02:56:47;;;;;;;4.22;3.13;;;9.90;99.90;;;;;;5098664;28;20024;-78
2021/06/14 02:59:17;;;;;;;4.70;2.67;;;9.90;99.90;;;;;;5088286;28;20028;-77
2021/06/14 03:01:48;;;;;;;4.75;2.83;;;9.80;99.90;;;;;;5087115;28;20061;-77
2021/06/14 03:04:16;;;;;;;5.18;2.72;;;9.90;99.90;;;;;;5103229;28;20043;-78
2021/06/14 03:06:48;;;;;;;4.63;3.33;;;9.80;99.90;;;;;;5110299;28;20397;-78
2021/06/14 03:09:15;;;;;;;4.18;2.85;;;9.80;99.90;;;;;;5106261;28;20051;-78
2021/06/14 03:11:44;;;;;;;4.32;2.80;;;9.80;99.90;;;;;;5104664;28;20416;-78
2021/06/14 03:14:15;;;;;;;4.15;3.03;;;9.80;99.90;;;;;;5099783;28;20032;-77
2021/06/14 03:16:45;;;;;;;6.10;2.92;;;9.80;99.90;;;;;;5101172;28;20028;-78
2021/06/14 03:19:12;;;;;;;5.13;3.30;;;9.80;99.90;;;;;;5107719;28;20030;-77
2021/06/14 03:21:38;;;;;;;4.45;3.13;;;9.80;99.90;;;;;;5108646;28;20111;-77
2021/06/14 03:24:06;;;;;;;3.92;2.85;;;9.90;99.90;;;;;;5103862;28;20115;-78
2021/06/14 03:26:38;;;;;;;2.75;2.42;;;9.90;99.90;;;;;;5086050;28;20036;-77
2021/06/14 03:29:06;;;;;;;4.53;3.83;;;9.90;99.90;;;;;;5086235;28;20452;-77
2021/06/14 03:31:32;;;;;;;3.00;2.38;;;9.90;99.90;;;;;;5111943;28;20555;-78
2021/06/14 03:33:59;;;;;;;3.05;2.80;;;9.90;99.90;;;;;;5109371;28;20119;-78
2021/06/14 03:36:32;;;;;;;2.75;2.55;;;9.90;99.90;;;;;;5107984;28;20044;-77
2021/06/14 03:39:00;;;;;;;4.65;2.72;;;9.90;99.90;;;;;;5103744;28;20042;-77
2021/06/14 03:41:26;;;;;;;4.40;2.47;;;9.90;99.90;;;;;;5102346;28;20024;-78
2021/06/14 03:43:52;;;;;;;3.00;2.53;;;9.90;99.90;;;;;;5106999;28;20031;-78
2021/06/14 03:46:19;;;;;;;4.43;2.97;;;9.80;99.90;;;;;;5104913;28;20028;-77
2021/06/14 03:48:46;;;;;;;4.90;2.92;;;9.80;99.90;;;;;;5109863;28;20042;-77
2021/06/14 03:51:11;;;;;;;4.45;3.17;;;9.80;99.90;;;;;;5103564;28;20024;-78
2021/06/14 03:53:39;;;;;;;5.25;2.65;;;9.70;99.90;;;;;;5103048;28;20117;-77
2021/06/14 03:56:10;;;;;;;3.75;2.95;;;9.70;99.90;;;;;;5107654;28;20109;-78
2021/06/14 03:58:37;;;;;;;5.20;2.80;;;9.70;99.90;;;;;;5109987;28;20401;-77
2021/06/14 04:01:03;;;;;;;4.03;2.40;;;9.70;99.90;;;;;;5105974;28;20389;-76
2021/06/14 04:03:32;;;;;;;3.95;2.58;;;9.80;99.90;;;;;;5101412;28;20031;-77
2021/06/14 04:06:01;;;;;;;4.63;2.92;;;9.80;99.90;;;;;;5096952;28;20028;-77
2021/06/14 04:08:31;;;;;;;2.75;2.17;;;9.80;99.90;;;;;;5084504;28;20051;-76
2021/06/14 04:10:57;;;;;;;4.78;2.75;;;9.80;99.90;;;;;;5088324;28;20032;-77
2021/06/14 04:13:22;;;;;;;2.42;2.22;;;9.90;99.90;;;;;;5106582;28;20088;-77
2021/06/14 04:15:48;;;;;;;5.07;2.60;;;9.90;99.90;;;;;;5104948;28;20100;-77
2021/06/14 04:18:15;;;;;;;2.67;2.47;;;10.00;99.90;;;;;;5103961;28;20038;-77
2021/06/14 04:20:41;;;;;;;4.45;2.65;;;10.00;99.90;;;;;;5109888;28;20110;-77
2021/06/14 04:23:06;;;;;;;2.88;2.40;;;10.00;99.90;;;;;;5112598;28;20083;-78
2021/06/14 04:25:32;;;;;;;4.10;2.55;;;10.10;99.90;;;;;;5106402;28;20083;-77
2021/06/14 04:28:00;;;;;;;5.00;2.70;;;10.20;99.90;;;;;;5105888;28;20036;-77
2021/06/14 04:30:26;;;;;;;5.82;2.90;;;10.20;99.90;;;;;;5103829;28;20035;-78
2021/06/14 04:32:52;;;;;;;5.07;2.78;;;10.30;99.90;;;;;;5102267;28;20036;-78
2021/06/14 04:35:18;;;;;;;2.88;2.67;;;10.40;99.90;;;;;;5109803;28;20024;-78
2021/06/14 04:37:43;;;;;;;4.80;2.70;;;10.40;99.90;;;;;;5114029;28;20031;-77
2021/06/14 04:40:09;;;;;;;7.43;3.40;;;10.50;99.90;;;;;;5107529;28;20579;-78
2021/06/14 04:42:35;;;;;;;5.50;2.97;;;10.60;99.90;;;;;;5104067;28;20035;-78
2021/06/14 04:45:01;;;;;;;5.72;2.80;;;10.60;99.90;;;;;;5103634;28;20061;-78
2021/06/14 04:47:27;;;;;;;4.68;2.85;;;10.60;99.90;;;;;;5105697;28;20032;-77
2021/06/14 04:49:53;;;;;;;6.22;4.80;;;10.60;99.90;;;;;;5104110;28;20032;-78
2021/06/14 04:52:18;;;;;;;5.50;4.00;;;10.80;99.90;;;;;;5099347;28;20048;-78
2021/06/14 04:54:44;;;;;;;7.05;4.05;;;10.80;99.90;;;;;;5104843;28;20468;-78
2021/06/14 04:57:10;;;;;;;6.45;4.03;;;10.80;99.90;;;;;;5107349;28;20024;-76
2021/06/14 04:59:36;;;;;;;7.60;4.35;;;10.80;99.90;;;;;;5104320;28;20024;-78
2021/06/14 05:02:02;;;;;;;7.05;3.92;;;10.90;99.90;;;;;;5088569;28;20035;-77
2021/06/14 05:04:27;;;;;;;4.32;3.30;;;10.90;99.90;;;;;;5104279;28;20047;-78
2021/06/14 05:06:53;;;;;;;5.63;3.35;;;11.00;99.90;;;;;;5102187;28;20032;-77
2021/06/14 05:09:19;;;;;;;4.78;3.65;;;11.10;99.90;;;;;;5106954;28;20024;-78
2021/06/14 05:11:47;;;;;;;4.72;3.75;;;11.20;99.90;;;;;;5105158;28;20089;-78
2021/06/14 05:14:13;;;;;;;5.10;3.83;;;11.30;99.90;;;;;;5102250;28;20075;-77
2021/06/14 05:16:38;;;;;;;18.70;4.50;;;11.50;99.90;;;;;;5106138;28;20047;-77
2021/06/14 05:19:04;;;;;;;4.72;4.07;;;11.60;99.90;;;;;;5103838;28;20115;-78
2021/06/14 05:21:30;;;;;;;7.75;4.32;;;11.70;99.90;;;;;;5107567;28;20398;-77
2021/06/14 05:23:56;;;;;;;7.50;3.78;;;11.90;99.90;;;;;;5102437;28;20035;-77
2021/06/14 05:26:21;;;;;;;7.25;4.25;;;12.00;99.90;;;;;;5098824;28;20547;-78
2021/06/14 05:28:47;;;;;;;4.07;3.40;;;12.10;99.90;;;;;;5103998;28;20064;-77
2021/06/14 05:31:13;;;;;;;4.65;3.42;;;12.40;99.90;;;;;;5110728;28;20119;-77
2021/06/14 05:33:38;;;;;;;4.45;2.97;;;13.00;99.90;;;;;;5100818;28;20057;-77
2021/06/14 05:36:04;;;;;;;6.20;3.40;;;13.80;99.90;;;;;;5110774;28;20031;-77
2021/06/14 05:38:30;;;;;;;5.28;3.15;;;14.70;99.90;;;;;;5102074;28;20030;-77
2021/06/14 05:40:56;;;;;;;4.03;2.72;;;15.60;99.90;;;;;;5101996;28;20040;-77
2021/06/14 05:43:22;;;;;;;4.70;2.70;;;16.50;99.90;;;;;;5086674;28;20088;-77
2021/06/14 05:45:48;;;;;;;5.53;3.25;;;17.30;99.90;;;;;;5106583;28;20092;-78
2021/06/14 05:48:15;;;;;;;2.90;2.50;;;18.00;99.90;;;;;;5086259;28;20087;-77
2021/06/14 05:50:41;;;;;;;3.60;2.78;;;18.50;99.90;;;;;;5105900;28;20132;-78
2021/06/14 05:53:07;;;;;;;5.80;2.70;;;18.90;99.90;;;;;;5101971;28;20534;-77
2021/06/14 05:55:33;;;;;;;4.90;2.75;;;19.30;99.90;;;;;;5100486;28;20419;-78
2021/06/14 05:57:59;;;;;;;3.65;2.50;;;19.50;99.90;;;;;;5103543;28;20498;-78
2021/06/14 06:00:24;;;;;;;4.93;3.28;;;19.60;99.10;;;;;;5104517;28;20036;-78
2021/06/14 06:02:50;;;;;;;4.55;2.42;;;20.00;98.70;;;;;;5106800;28;20024;-78
2021/06/14 06:05:16;;;;;;;5.95;2.83;;;20.20;94.40;;;;;;5099280;28;20032;-77
2021/06/14 06:07:42;;;;;;;3.17;2.60;;;20.10;94.70;;;;;;5105916;28;20073;-78
2021/06/14 06:10:10;;;;;;;4.65;2.38;;;20.50;96.00;;;;;;5102349;28;20040;-78
2021/06/14 06:12:37;;;;;;;4.97;2.70;;;20.80;94.00;;;;;;5104994;28;20451;-78
2021/06/14 06:15:15;;;;;;;3.63;2.47;;;21.00;90.00;;;;;;5095447;28;20040;-78
2021/06/14 06:17:41;;;;;;;4.53;2.78;;;21.30;90.00;;;;;;5104350;28;20088;-77
2021/06/14 06:20:12;;;;;;;5.43;2.08;;;21.40;83.80;;;;;;5101548;28;20039;-78
2021/06/14 06:22:39;;;;;;;4.03;1.92;;;21.70;81.00;;;;;;5100291;28;20035;-78
2021/06/14 06:25:06;;;;;;;4.13;2.65;;;21.90;79.60;;;;;;5101882;28;20032;-77
2021/06/14 06:27:32;;;;;;;5.80;2.53;;;22.30;82.30;;;;;;5095313;28;20135;-78
2021/06/14 06:29:58;;;;;;;3.60;2.10;;;22.30;75.70;;;;;;5107037;28;20043;-78
2021/06/14 06:32:23;;;;;;;4.22;2.30;;;22.70;77.00;;;;;;5104526;28;20028;-79
2021/06/14 06:34:49;;;;;;;5.35;2.20;;;22.90;72.70;;;;;;5113801;28;20543;-78
2021/06/14 06:37:15;;;;;;;7.90;2.45;;;23.00;70.90;;;;;;5109836;28;20114;-78
2021/06/14 06:39:40;;;;;;;3.55;2.30;;;23.20;69.00;;;;;;5104120;28;20062;-78
2021/06/14 06:42:07;;;;;;;4.45;2.10;;;23.30;69.60;;;;;;5101800;28;20085;-78
2021/06/14 06:44:33;;;;;;;3.95;2.30;;;23.40;65.40;;;;;;5112393;28;20023;-78
2021/06/14 06:47:00;;;;;;;2.28;1.77;;;23.30;68.60;;;;;;5101528;28;20039;-77
2021/06/14 06:49:26;;;;;;;3.80;2.13;;;23.50;67.40;;;;;;5091922;28;20036;-78
2021/06/14 06:51:52;;;;;;;4.18;1.75;;;24.00;67.40;;;;;;5089185;28;20039;-79
2021/06/14 06:54:18;;;;;;;3.13;1.85;;;24.50;66.60;;;;;;5098296;28;20036;-79
2021/06/14 06:56:49;;;;;;;8.30;2.42;;;25.00;61.70;;;;;;5102859;28;20047;-78
2021/06/14 06:59:15;;;;;;;5.13;2.28;;;24.60;57.40;;;;;;5090862;28;20060;-78
2021/06/14 07:01:41;;;;;;;3.45;1.80;;;24.30;57.40;;;;;;5103903;28;20024;-77
2021/06/14 07:04:07;;;;;;;2.65;1.73;;;24.40;59.50;;;;;;5103416;28;20043;-78
2021/06/14 07:06:34;;;;;;;4.95;2.25;;;24.40;57.40;;;;;;5105742;28;20485;-77
2021/06/14 07:09:00;;;;;;;4.10;2.00;;;24.40;58.60;;;;;;5108514;28;20101;-78
2021/06/14 07:11:28;;;;;;;8.52;3.15;;;24.30;55.10;;;;;;5106767;28;20478;-78
2021/06/14 07:13:54;;;;;;;2.92;1.85;;;24.50;57.40;;;;;;5100078;28;20024;-78
2021/06/14 07:16:20;;;;;;;2.63;1.75;;;24.90;57.40;;;;;;5106987;28;20050;-78
2021/06/14 07:18:47;;;;;;;2.80;1.83;;;24.90;54.80;;;;;;5086160;28;20044;-77
2021/06/14 07:21:13;;;;;;;2.85;1.90;;;23.80;54.30;;;;;;5104654;28;20103;-77
2021/06/14 07:23:39;;;;;;;3.45;2.10;;;23.40;59.20;;;;;;5106469;28;20091;-78
2021/06/14 07:26:05;;;;;;;5.10;1.98;;;23.30;58.70;;;;;;5101558;28;20613;-78
2021/06/14 07:28:32;;;;;;;3.63;1.90;;;23.40;56.40;;;;;;5102849;28;20150;-78
2021/06/14 07:31:01;;;;;;;4.43;2.35;;;23.80;56.90;;;;;;5100193;28;20032;-78
2021/06/14 07:33:27;;;;;;;2.63;1.52;;;23.90;54.20;;;;;;5095130;28;20035;-77
2021/06/14 07:35:53;;;;;;;2.40;2.03;;;23.50;54.40;;;;;;5095972;28;20024;-78
2021/06/14 07:38:19;;;;;;;3.88;2.03;;;23.60;57.20;;;;;;5098548;28;20482;-77
2021/06/14 07:40:46;;;;;;;2.90;1.80;;;23.40;55.30;;;;;;5099941;28;20035;-77
2021/06/14 07:43:12;;;;;;;5.35;2.00;;;23.30;56.10;;;;;;5099903;28;20032;-77
2021/06/14 07:45:42;;;;;;;4.03;1.90;;;23.00;56.20;;;;;;5101165;28;20028;-78
2021/06/14 07:48:09;;;;;;;6.75;2.72;;;23.10;54.40;;;;;;5101804;28;20539;-78
2021/06/14 07:50:36;;;;;;;5.30;2.28;;;22.90;57.40;;;;;;5105097;28;20545;-77
2021/06/14 07:53:02;;;;;;;3.47;1.88;;;22.70;55.70;;;;;;5102385;28;20409;-77
2021/06/14 07:55:29;;;;;;;5.60;2.80;;;22.50;57.10;;;;;;5101188;28;20039;-77
2021/06/14 07:57:54;;;;;;;5.80;2.33;;;22.20;56.60;;;;;;5099201;28;20028;-76
2021/06/14 08:00:20;;;;;;;3.55;2.13;;;21.90;58.40;;;;;;5096495;28;20548;-77
2021/06/14 08:02:47;;;;;;;5.97;2.10;;;22.10;60.10;;;;;;5098716;28;20036;-77
2021/06/14 08:05:13;;;;;;;5.28;2.20;;;22.40;58.00;;;;;;5101404;28;20032;-77
2021/06/14 08:07:40;;;;;;;3.60;2.08;;;22.10;58.40;;;;;;5097506;28;20471;-78
2021/06/14 08:10:08;;;;;;;3.03;1.90;;;21.90;61.60;;;;;;5110664;28;20030;-77
2021/06/14 08:12:38;;;;;;;4.80;1.67;;;21.50;59.10;;;;;;5100628;28;20064;-77
2021/06/14 08:15:04;;;;;;;6.72;2.50;;;21.10;60.70;;;;;;5096226;28;20031;-77
2021/06/14 08:17:30;;;;;;;7.43;2.55;;;21.10;61.40;;;;;;5103184;27;20051;-77
2021/06/14 08:20:23;;;;;;;3.88;2.30;;;21.10;61.10;;;;;;5098284;28;20028;-77
2021/06/14 08:25:29;;;;;;;6.82;2.45;;;21.10;61.80;;;;;;5101577;27;20055;-77
2021/06/14 08:27:54;;;;;;;7.40;2.45;;;21.20;62.50;;;;;;5104783;28;20062;-77
2021/06/14 08:30:22;;;;;;;4.55;2.40;;;21.10;61.40;;;;;;5107481;28;20110;-77
2021/06/14 08:32:49;;;;;;;6.40;2.47;;;20.50;62.50;;;;;;5103357;28;20016;-77
2021/06/14 08:35:19;;;;;;;2.60;2.13;;;20.50;63.20;;;;;;5099848;28;20067;-76
2021/06/14 08:37:46;;;;;;;4.68;2.13;;;20.60;63.50;;;;;;5098120;28;20054;-77
2021/06/14 08:40:15;;;;;;;9.55;2.75;;;20.50;64.30;;;;;;5100485;28;20023;-77
2021/06/14 08:42:41;;;;;;;6.22;1.95;;;20.70;63.70;;;;;;5102751;28;20024;-76
2021/06/14 08:45:09;;;;;;;4.55;2.58;;;20.60;64.00;;;;;;5095158;28;20034;-77
2021/06/14 08:47:39;;;;;;;4.53;2.20;;;20.90;63.00;;;;;;5099564;28;20123;-77
2021/06/14 08:50:08;;;;;;;4.25;2.25;;;21.40;64.00;;;;;;5099421;28;20071;-77
2021/06/14 08:52:34;;;;;;;5.55;2.15;;;21.90;59.00;;;;;;5101862;28;20111;-77
2021/06/14 08:55:02;;;;;;;5.97;2.25;;;21.70;57.50;;;;;;5098706;28;20157;-77
2021/06/14 08:57:27;;;;;;;4.78;2.03;;;21.90;62.80;;;;;;5097495;28;20070;-76
2021/06/14 08:59:53;;;;;;;3.42;2.22;;;22.30;64.80;;;;;;5077357;28;20398;-77
2021/06/14 09:02:19;;;;;;;4.20;1.80;;;22.70;58.40;;;;;;5098238;28;20028;-77
2021/06/14 09:04:45;;;;;;;4.13;1.90;;;22.90;58.10;;;;;;5097014;28;20031;-77
2021/06/14 09:07:11;;;;;;;4.25;1.88;;;23.00;57.30;;;;;;5095563;28;20020;-77
2021/06/14 09:09:37;;;;;;;4.68;2.08;;;23.20;56.80;;;;;;5103567;28;20394;-77
2021/06/14 09:12:04;;;;;;;3.50;2.13;;;23.40;57.00;;;;;;5098516;28;20032;-76
2021/06/14 09:14:36;;;;;;;3.17;1.88;;;23.40;59.20;;;;;;5097588;28;20046;-76
2021/06/14 09:17:04;;;;;;;5.47;2.05;;;23.00;56.90;;;;;;5097208;27;20020;-76
2021/06/14 09:19:59;;;;;;;3.28;2.00;;;23.00;59.50;;;;;;5062165;28;20028;-77
2021/06/14 09:22:26;;;;;;;3.90;1.88;;;22.80;62.50;;;;;;5097932;28;20034;-78
2021/06/14 09:25:02;;;;;;;2.97;1.80;;;22.70;57.90;;;;;;5097733;28;20032;-77
2021/06/14 09:27:30;;;;;;;3.08;2.00;;;22.60;57.40;;;;;;5092863;28;20132;-77
2021/06/14 09:29:57;;;;;;;3.90;2.00;;;22.40;58.40;;;;;;5098704;28;20076;-77
2021/06/14 09:32:23;;;;;;;3.50;1.90;;;22.40;58.90;;;;;;5099690;28;20054;-77
2021/06/14 09:34:53;;;;;;;2.88;1.85;;;22.30;58.20;;;;;;5077770;28;20134;-77
2021/06/14 09:37:19;;;;;;;3.60;1.90;;;22.20;57.80;;;;;;5099487;28;20024;-76
2021/06/14 09:39:47;;;;;;;4.63;1.70;;;22.10;64.80;;;;;;5098136;28;20390;-77
2021/06/14 09:42:14;;;;;;;2.40;2.05;;;22.10;63.50;;;;;;5095457;28;20376;-78
2021/06/14 09:44:40;;;;;;;3.08;1.95;;;22.10;64.60;;;;;;5099073;28;20043;-77
2021/06/14 09:47:10;;;;;;;4.97;2.10;;;21.80;59.50;;;;;;5100432;28;20028;-77
2021/06/14 09:49:37;;;;;;;3.70;1.85;;;21.80;62.30;;;;;;5094336;28;20031;-78
2021/06/14 09:52:06;;;;;;;3.10;1.83;;;21.90;64.20;;;;;;5106636;28;20032;-77
2021/06/14 09:54:34;;;;;;;4.68;2.10;;;21.80;58.80;;;;;;5104215;28;20043;-77
2021/06/14 09:57:04;;;;;;;5.32;2.25;;;21.70;63.60;;;;;;5097841;28;20034;-78
2021/06/14 09:59:38;;;;;;;5.82;2.10;;;21.60;64.60;;;;;;5097497;28;20081;-78
2021/06/14 10:02:16;;;;;;;6.20;2.38;;;21.30;58.60;;;;;;5099982;28;20031;-78
2021/06/14 10:04:42;;;;;;;3.28;1.92;;;21.20;60.40;;;;;;5095600;28;20101;-77
2021/06/14 10:07:13;;;;;;;4.70;2.00;;;21.10;62.90;;;;;;5091704;28;20036;-77
2021/06/14 10:09:43;;;;;;;3.65;2.03;;;21.00;62.20;;;;;;5083130;28;20035;-77
2021/06/14 10:12:27;;;;;;;3.88;1.98;;;21.00;63.40;;;;;;5094590;28;20036;-77
2021/06/14 10:15:01;;;;;;;3.28;1.90;;;21.10;66.50;;;;;;5085770;28;20669;-77
2021/06/14 10:17:38;;;;;;;3.78;2.28;;;21.20;63.80;;;;;;5111348;27;20043;-78
2021/06/14 10:20:14;;;;;;;3.60;2.10;;;21.20;61.80;;;;;;5095840;28;20024;-77
2021/06/14 10:22:42;;;;;;;3.10;2.13;;;21.10;60.50;;;;;;5099884;28;20108;-77
2021/06/14 10:25:09;;;;;;;4.88;2.10;;;21.10;62.90;;;;;;5090618;28;20028;-78
2021/06/14 10:27:35;;;;;;;3.28;1.90;;;21.10;60.30;;;;;;5097610;28;20096;-77
2021/06/14 10:30:04;;;;;;;9.60;2.20;;;21.00;64.10;;;;;;5076717;28;20084;-76
2021/06/14 10:32:32;;;;;;;2.88;1.75;;;21.00;60.80;;;;;;5096544;28;20039;-77
2021/06/14 10:34:59;;;;;;;5.88;2.22;;;20.90;63.40;;;;;;5105135;28;20027;-77
2021/06/14 10:37:26;;;;;;;3.30;2.13;;;21.00;62.10;;;;;;5099277;28;20027;-77
2021/06/14 10:39:55;;;;;;;4.53;2.10;;;20.90;61.60;;;;;;5094974;28;20071;-77
2021/06/14 10:42:21;;;;;;;3.83;2.10;;;20.80;64.30;;;;;;5096477;28;20440;-77
2021/06/14 10:44:47;;;;;;;7.57;2.30;;;21.00;68.10;;;;;;5094493;28;20033;-77
2021/06/14 10:47:13;;;;;;;4.10;1.85;;;21.10;68.20;;;;;;5095584;28;20039;-78
2021/06/14 10:49:39;;;;;;;6.20;2.00;;;21.20;67.30;;;;;;5084933;28;20039;-77
2021/06/14 10:52:06;;;;;;;4.05;2.40;;;21.40;64.90;;;;;;5100266;28;20043;-77
2021/06/14 10:54:42;;;;;;;3.58;2.55;;;21.50;64.50;;;;;;5096897;28;20020;-77
2021/06/14 10:57:10;;;;;;;5.32;1.95;;;21.60;67.40;;;;;;5101684;28;20028;-75
2021/06/14 10:59:46;;;;;;;3.30;2.03;;;21.60;60.50;;;;;;5102039;28;20063;-78
2021/06/14 11:02:14;;;;;;;3.65;2.15;;;21.70;61.80;;;;;;5102374;28;20530;-78
2021/06/14 11:04:40;;;;;;;4.45;1.98;;;21.80;62.10;;;;;;5095045;28;20042;-78
2021/06/14 11:07:05;;;;;;;2.80;1.92;;;21.80;63.50;;;;;;5095615;28;20042;-77
2021/06/14 11:09:42;;;;;;;3.03;2.20;;;21.90;64.30;;;;;;5099517;28;20429;-77
2021/06/14 11:12:10;;;;;;;3.05;1.90;;;21.90;61.80;;;;;;5101476;28;20731;-77
2021/06/14 11:14:37;;;;;;;2.80;2.10;;;21.80;60.00;;;;;;5096243;28;20043;-77
2021/06/14 11:17:24;;;;;;;2.67;1.70;;;21.80;62.80;;;;;;5103877;28;20398;-76
2021/06/14 11:20:10;;;;;;;2.35;1.52;;;21.90;60.00;;;;;;5094927;28;20494;-77
2021/06/14 11:22:38;;;;;;;3.60;2.08;;;21.90;59.50;;;;;;5095810;27;20036;-77
2021/06/14 11:25:51;;;;;;;2.92;2.08;;;22.00;64.90;;;;;;5101734;28;20557;-77
2021/06/14 11:28:35;;;;;;;4.80;2.08;;;22.20;64.50;;;;;;5096117;28;20039;-77
2021/06/14 11:31:16;;;;;;;2.78;1.67;;;22.30;59.40;;;;;;5105240;27;20107;-77
2021/06/14 11:33:43;;;;;;;2.40;1.88;;;22.30;60.50;;;;;;5100499;28;20115;-77
2021/06/14 11:36:18;;;;;;;2.25;1.40;;;22.40;58.80;;;;;;5093926;28;20784;-77
2021/06/14 11:38:45;;;;;;;5.22;1.30;;;22.40;58.30;;;;;;5100773;28;20569;-77
2021/06/14 11:41:11;;;;;;;3.00;1.70;;;22.40;60.60;;;;;;5104217;28;20028;-76
2021/06/14 11:43:37;;;;;;;2.55;1.70;;;22.70;62.20;;;;;;5102081;28;20027;-77
2021/06/14 11:46:17;;;;;;;3.10;1.95;;;22.90;65.60;;;;;;5107989;28;20463;-77
2021/06/14 11:48:48;;;;;;;3.40;1.90;;;23.10;58.70;;;;;;5107398;28;20054;-77
2021/06/14 11:51:18;;;;;;;3.15;1.83;;;23.20;59.10;;;;;;5104678;28;20115;-77
2021/06/14 11:53:57;;;;;;;3.58;2.00;;;23.40;58.00;;;;;;5098783;28;20032;-77
2021/06/14 11:56:25;;;;;;;4.57;2.40;;;23.50;56.60;;;;;;5101151;28;20074;-77
2021/06/14 11:58:54;;;;;;;2.60;1.50;;;23.60;57.30;;;;;;5089832;28;20027;-78
2021/06/14 12:01:38;;;;;;;8.23;1.90;;;23.70;56.80;;;;;;5108752;27;20148;-79
2021/06/14 12:04:06;;;;;;;3.60;1.50;;;23.90;57.00;;;;;;5109313;28;20390;-78
2021/06/14 12:06:42;;;;;;;6.35;1.70;;;24.20;58.10;;;;;;5109579;28;20168;-78
2021/06/14 12:09:10;;;;;;;2.90;1.60;;;24.40;53.80;;;;;;5105045;28;20058;-78
2021/06/14 12:11:37;;;;;;;3.03;1.77;;;24.50;56.80;;;;;;5099076;28;20493;-78
2021/06/14 12:14:16;;;;;;;3.50;1.67;;;24.50;53.30;;;;;;5102960;28;20048;-78
2021/06/14 12:16:44;;;;;;;4.45;1.85;;;24.60;53.50;;;;;;5106338;27;20046;-78
2021/06/14 12:19:11;;;;;;;2.47;1.40;;;24.80;54.10;;;;;;5093251;28;20119;-77
2021/06/14 12:21:37;;;;;;;3.15;1.70;;;25.20;53.90;;;;;;5099207;28;20020;-78
2021/06/14 12:24:13;;;;;;;1.75;1.17;;;25.70;51.70;;;;;;5098282;28;20168;-79
2021/06/14 12:26:41;;;;;;;1.85;1.60;;;26.10;54.70;;;;;;5098970;28;20032;-77
2021/06/14 12:29:20;;;;;;;2.72;1.55;;;26.60;53.90;;;;;;5102136;28;20036;-77
2021/06/14 12:31:46;;;;;;;2.53;1.60;;;27.00;48.30;;;;;;5098377;28;20048;-77
2021/06/14 12:34:12;;;;;;;3.13;1.90;;;27.30;52.70;;;;;;5103077;28;20044;-78
2021/06/14 12:36:38;;;;;;;3.17;1.50;;;27.20;47.70;;;;;;5095729;28;20020;-78
2021/06/14 12:39:04;;;;;;;1.92;1.35;;;27.30;46.70;;;;;;5084585;28;20110;-77
2021/06/14 12:41:30;;;;;;;2.28;1.02;;;27.20;45.10;;;;;;5097467;28;20036;-79
2021/06/14 12:43:58;;;;;;;2.60;1.35;;;27.10;45.90;;;;;;5090997;28;20035;-77
2021/06/14 12:46:34;;;;;;;1.90;1.20;;;27.40;45.90;;;;;;5102840;28;20035;-78
2021/06/14 12:49:00;;;;;;;2.50;1.45;;;27.30;44.40;;;;;;5116974;27;20726;-77
2021/06/14 12:51:34;;;;;;;1.83;1.40;;;27.30;44.10;;;;;;5101363;28;20032;-77
2021/06/14 12:54:01;;;;;;;1.50;1.10;;;27.20;45.00;;;;;;5091755;28;20493;-78
2021/06/14 12:56:27;;;;;;;1.80;1.45;;;27.40;47.20;;;;;;5100279;28;20023;-77
2021/06/14 12:58:53;;;;;;;2.10;1.35;;;27.80;47.20;;;;;;5104586;28;20406;-78